createdAt,value
2017-08-31T00:02:02.568Z,80.40
2017-08-31T00:04:30.142Z,81.00
2017-08-31T00:06:57.656Z,80.40
2017-08-31T00:09:25.147Z,80.70
2017-08-31T00:11:52.665Z,81.10
2017-08-31T00:14:20.164Z,81.60
2017-08-31T00:16:47.716Z,80.90
2017-08-31T00:19:15.228Z,81.20
2017-08-31T00:21:42.738Z,80.70
2017-08-31T00:24:10.310Z,80.70
2017-08-31T00:26:37.825Z,81.10
2017-08-31T00:29:05.321Z,81.30
2017-08-31T00:31:32.827Z,81.90
2017-08-31T00:34:00.328Z,82.60
2017-08-31T00:36:27.823Z,83.00
2017-08-31T00:38:55.428Z,83.10
2017-08-31T00:41:22.990Z,83.00
2017-08-31T00:43:50.537Z,83.20
2017-08-31T00:46:18.045Z,83.60
2017-08-31T00:48:45.548Z,84.00
2017-08-31T00:51:13.056Z,83.80
2017-08-31T00:53:40.565Z,83.70
2017-08-31T00:56:08.147Z,83.60
2017-08-31T00:58:35.693Z,83.00
2017-08-31T01:01:03.200Z,82.70
2017-08-31T01:03:30.737Z,82.90
2017-08-31T01:05:58.280Z,82.70
2017-08-31T01:08:25.836Z,82.60
2017-08-31T01:10:53.347Z,82.80
2017-08-31T01:13:20.859Z,82.50
2017-08-31T01:15:48.390Z,82.40
2017-08-31T01:18:15.958Z,82.20
2017-08-31T01:20:43.508Z,82.20
2017-08-31T01:23:11.892Z,82.20
2017-08-31T01:25:39.475Z,82.20
2017-08-31T01:28:07.019Z,82.10
2017-08-31T01:30:34.584Z,82.00
2017-08-31T01:33:02.109Z,82.10
2017-08-31T01:35:29.697Z,82.00
2017-08-31T01:37:57.261Z,81.90
2017-08-31T01:40:24.759Z,81.90
2017-08-31T01:42:52.260Z,82.00
2017-08-31T01:45:19.828Z,82.40
2017-08-31T01:47:47.348Z,82.80
2017-08-31T01:50:14.854Z,83.10
2017-08-31T01:52:42.368Z,83.30
2017-08-31T01:55:09.860Z,83.70
2017-08-31T01:57:37.372Z,83.80
2017-08-31T02:00:04.884Z,83.80
2017-08-31T02:02:32.384Z,84.00
2017-08-31T02:04:59.883Z,83.70
2017-08-31T02:07:27.442Z,83.90
2017-08-31T02:09:55.004Z,83.90
2017-08-31T02:12:22.515Z,83.70
2017-08-31T02:14:50.013Z,83.40
2017-08-31T02:17:17.568Z,83.60
2017-08-31T02:19:45.061Z,83.80
2017-08-31T02:22:12.580Z,83.90
2017-08-31T02:24:40.071Z,83.70
2017-08-31T02:27:07.700Z,84.00
2017-08-31T02:29:35.187Z,84.00
2017-08-31T02:32:02.676Z,83.90
2017-08-31T02:34:30.184Z,84.00
2017-08-31T02:36:57.724Z,84.10
2017-08-31T02:39:25.234Z,83.80
2017-08-31T02:41:52.763Z,83.70
2017-08-31T02:44:20.267Z,84.00
2017-08-31T02:46:47.851Z,84.30
2017-08-31T02:49:15.348Z,84.20
2017-08-31T02:51:42.990Z,84.10
2017-08-31T02:54:10.503Z,83.90
2017-08-31T02:56:38.093Z,84.50
2017-08-31T02:59:05.616Z,84.60
2017-08-31T03:01:33.206Z,84.40
2017-08-31T03:04:00.727Z,84.00
2017-08-31T03:06:28.316Z,83.90
2017-08-31T03:08:55.810Z,83.80
2017-08-31T03:11:23.333Z,82.40
2017-08-31T03:13:50.900Z,83.10
2017-08-31T03:16:18.422Z,83.10
2017-08-31T03:18:45.932Z,83.30
2017-08-31T03:21:13.416Z,83.50
2017-08-31T03:23:40.926Z,83.40
2017-08-31T03:26:08.417Z,83.60
2017-08-31T03:28:35.964Z,83.60
2017-08-31T03:31:03.511Z,83.60
2017-08-31T03:33:31.066Z,83.60
2017-08-31T03:35:58.642Z,83.70
2017-08-31T03:38:26.176Z,83.80
2017-08-31T03:40:53.692Z,83.40
2017-08-31T03:43:21.298Z,82.90
2017-08-31T03:45:48.808Z,83.00
2017-08-31T03:48:16.315Z,82.10
2017-08-31T03:50:43.825Z,82.60
2017-08-31T03:53:11.420Z,83.10
2017-08-31T03:55:38.919Z,83.10
2017-08-31T03:58:06.428Z,82.90
2017-08-31T04:00:33.920Z,83.30
2017-08-31T04:03:01.453Z,83.30
2017-08-31T04:05:28.945Z,83.40
2017-08-31T04:07:56.437Z,83.60
2017-08-31T04:10:23.966Z,83.50
2017-08-31T04:12:51.497Z,83.70
2017-08-31T04:15:19.009Z,83.30
2017-08-31T04:17:46.515Z,83.50
2017-08-31T04:20:14.060Z,83.20
2017-08-31T04:22:41.556Z,83.70
2017-08-31T04:25:09.081Z,82.80
2017-08-31T04:27:36.580Z,82.20
2017-08-31T04:30:04.079Z,82.50
2017-08-31T04:32:31.639Z,82.40
2017-08-31T04:34:59.124Z,81.90
2017-08-31T04:37:26.665Z,82.00
2017-08-31T04:39:54.150Z,82.20
2017-08-31T04:42:21.680Z,82.50
2017-08-31T04:44:49.194Z,82.50
2017-08-31T04:47:16.789Z,82.50
2017-08-31T04:49:44.351Z,82.60
2017-08-31T04:52:11.912Z,82.50
2017-08-31T04:54:39.408Z,82.60
2017-08-31T04:57:06.941Z,82.50
2017-08-31T04:59:34.472Z,82.70
2017-08-31T05:02:01.999Z,82.70
2017-08-31T05:04:29.499Z,83.10
2017-08-31T05:06:56.987Z,83.50
2017-08-31T05:09:24.501Z,83.80
2017-08-31T05:11:52.020Z,83.80
2017-08-31T05:14:19.547Z,83.80
2017-08-31T05:16:47.035Z,83.70
2017-08-31T05:19:14.544Z,83.40
2017-08-31T05:21:42.074Z,83.30
2017-08-31T05:24:09.573Z,83.20
2017-08-31T05:26:37.064Z,83.30
2017-08-31T05:29:04.591Z,83.40
2017-08-31T05:31:32.088Z,83.40
2017-08-31T05:33:59.661Z,83.30
2017-08-31T05:36:27.909Z,83.00
2017-08-31T05:38:55.406Z,82.00
2017-08-31T05:41:22.925Z,83.30
2017-08-31T05:43:50.443Z,83.70
2017-08-31T05:46:17.944Z,84.10
2017-08-31T05:48:45.484Z,84.50
2017-08-31T05:51:12.976Z,85.50
2017-08-31T05:53:40.521Z,85.60
2017-08-31T05:56:08.032Z,86.00
2017-08-31T05:58:35.573Z,86.40
2017-08-31T06:01:03.085Z,86.00
2017-08-31T06:03:30.572Z,86.20
2017-08-31T06:05:58.176Z,84.60
2017-08-31T06:08:25.698Z,84.70
2017-08-31T06:10:53.230Z,83.30
2017-08-31T06:13:20.784Z,85.00
2017-08-31T06:15:48.309Z,85.70
2017-08-31T06:18:15.838Z,86.00
2017-08-31T06:20:43.437Z,87.50
2017-08-31T06:23:11.082Z,87.30
2017-08-31T06:25:38.638Z,87.30
2017-08-31T06:28:06.194Z,89.20
2017-08-31T06:30:33.763Z,87.50
2017-08-31T06:33:01.310Z,87.30
2017-08-31T06:35:28.846Z,88.40
2017-08-31T06:37:56.410Z,88.90
2017-08-31T06:40:23.996Z,88.10
2017-08-31T06:42:51.562Z,87.90
2017-08-31T06:45:19.099Z,87.50
2017-08-31T06:47:46.617Z,87.50
2017-08-31T06:50:14.926Z,90.40
2017-08-31T06:52:42.453Z,90.30
2017-08-31T06:55:10.007Z,90.30
2017-08-31T06:57:37.527Z,90.50
2017-08-31T07:00:05.053Z,90.10
2017-08-31T07:02:32.604Z,89.50
2017-08-31T07:05:00.189Z,88.50
2017-08-31T07:07:27.733Z,88.00
2017-08-31T07:09:55.274Z,88.80
2017-08-31T07:12:22.834Z,89.30
2017-08-31T07:14:50.445Z,89.00
2017-08-31T07:17:17.992Z,88.50
2017-08-31T07:19:45.531Z,88.00
2017-08-31T07:22:13.078Z,86.20
2017-08-31T07:24:40.639Z,85.40
2017-08-31T07:27:08.197Z,84.80
2017-08-31T07:29:35.725Z,84.60
2017-08-31T07:32:03.260Z,85.40
2017-08-31T07:34:30.813Z,87.40
2017-08-31T07:36:58.358Z,89.00
2017-08-31T07:39:25.919Z,89.00
2017-08-31T07:41:53.479Z,89.10
2017-08-31T07:44:21.003Z,88.00
2017-08-31T07:46:48.597Z,87.10
2017-08-31T07:49:16.121Z,86.20
2017-08-31T07:51:43.654Z,85.70
2017-08-31T07:54:11.225Z,84.40
2017-08-31T07:56:38.763Z,84.10
2017-08-31T07:59:06.289Z,84.30
2017-08-31T08:01:33.858Z,84.50
2017-08-31T08:04:02.169Z,84.20
2017-08-31T08:06:29.782Z,83.50
2017-08-31T08:08:57.337Z,84.50
2017-08-31T08:11:24.887Z,84.20
2017-08-31T08:13:52.446Z,84.50
2017-08-31T08:16:19.992Z,84.60
2017-08-31T08:18:47.557Z,85.60
2017-08-31T08:21:15.088Z,85.90
2017-08-31T08:23:42.656Z,86.10
2017-08-31T08:26:10.611Z,85.00
2017-08-31T08:28:38.198Z,85.10
2017-08-31T08:31:05.759Z,83.30
2017-08-31T08:33:33.288Z,82.10
2017-08-31T08:36:00.821Z,81.70
2017-08-31T08:38:28.386Z,81.30
2017-08-31T08:40:56.003Z,81.80
2017-08-31T08:43:23.556Z,82.60
2017-08-31T08:45:51.083Z,83.60
2017-08-31T08:48:18.673Z,83.80
2017-08-31T08:50:46.235Z,83.80
2017-08-31T08:53:13.807Z,83.60
2017-08-31T08:55:41.408Z,83.80
2017-08-31T08:58:09.023Z,84.50
2017-08-31T09:00:36.594Z,83.90
2017-08-31T09:03:04.141Z,83.60
2017-08-31T09:05:31.679Z,83.60
2017-08-31T09:07:59.239Z,83.70
2017-08-31T09:10:26.799Z,81.40
2017-08-31T09:12:54.345Z,80.00
2017-08-31T09:15:21.898Z,79.60
2017-08-31T09:17:49.466Z,78.50
2017-08-31T09:20:17.033Z,76.90
2017-08-31T09:22:44.602Z,76.20
2017-08-31T09:25:12.139Z,77.20
2017-08-31T09:27:39.711Z,76.70
2017-08-31T09:30:07.233Z,77.00
2017-08-31T09:32:34.782Z,76.20
2017-08-31T09:35:02.390Z,75.70
2017-08-31T09:37:30.045Z,76.70
2017-08-31T09:39:57.604Z,76.30
2017-08-31T09:42:25.130Z,77.60
2017-08-31T09:44:52.685Z,77.40
2017-08-31T09:47:20.209Z,77.70
2017-08-31T09:49:47.757Z,77.70
2017-08-31T09:52:15.296Z,78.50
2017-08-31T09:54:42.856Z,78.70
2017-08-31T09:57:10.418Z,77.60
2017-08-31T09:59:37.957Z,78.20
2017-08-31T10:02:05.522Z,78.00
2017-08-31T10:04:33.096Z,77.20
2017-08-31T10:07:00.656Z,76.50
2017-08-31T10:09:28.195Z,76.70
2017-08-31T10:11:56.074Z,76.50
2017-08-31T10:14:23.639Z,76.60
2017-08-31T10:16:51.193Z,76.70
2017-08-31T10:19:18.754Z,76.50
2017-08-31T10:21:46.318Z,76.80
2017-08-31T10:24:13.842Z,77.40
2017-08-31T10:26:41.388Z,77.10
2017-08-31T10:29:08.930Z,77.10
2017-08-31T10:31:36.495Z,76.50
2017-08-31T10:34:04.025Z,76.10
2017-08-31T10:36:31.577Z,76.40
2017-08-31T10:38:59.168Z,76.80
2017-08-31T10:41:26.710Z,75.60
2017-08-31T10:43:54.265Z,76.00
2017-08-31T10:46:21.827Z,75.40
2017-08-31T10:48:49.350Z,75.30
2017-08-31T10:51:17.873Z,76.10
2017-08-31T10:53:45.405Z,74.00
2017-08-31T10:56:12.947Z,74.40
2017-08-31T10:58:40.506Z,74.00
2017-08-31T11:01:08.057Z,74.90
2017-08-31T11:03:35.610Z,74.80
2017-08-31T11:06:03.182Z,74.60
2017-08-31T11:08:30.729Z,74.40
2017-08-31T11:10:58.312Z,74.50
2017-08-31T11:13:25.876Z,74.60
2017-08-31T11:15:53.448Z,74.50
2017-08-31T11:18:20.982Z,73.70
2017-08-31T11:20:48.516Z,73.30
2017-08-31T11:23:16.101Z,73.90
2017-08-31T11:25:43.635Z,73.10
2017-08-31T11:28:11.288Z,71.40
2017-08-31T11:30:38.827Z,72.30
2017-08-31T11:33:06.408Z,71.80
2017-08-31T11:35:33.882Z,71.50
2017-08-31T11:38:01.427Z,71.00
2017-08-31T11:40:29.001Z,70.10
2017-08-31T11:42:56.551Z,70.50
2017-08-31T11:45:24.110Z,70.70
2017-08-31T11:47:51.795Z,71.10
2017-08-31T11:50:19.346Z,71.90
2017-08-31T11:52:46.891Z,70.70
2017-08-31T11:55:14.432Z,70.70
2017-08-31T11:57:42.114Z,70.00
2017-08-31T12:00:09.647Z,70.10
2017-08-31T12:02:37.184Z,69.70
2017-08-31T12:05:04.738Z,69.90
2017-08-31T12:07:32.359Z,69.50
2017-08-31T12:09:59.911Z,68.40
2017-08-31T12:12:27.473Z,69.50
2017-08-31T12:14:55.026Z,69.00
2017-08-31T12:17:22.608Z,68.90
2017-08-31T12:19:50.224Z,69.80
2017-08-31T12:22:17.760Z,69.20
2017-08-31T12:24:45.306Z,69.00
2017-08-31T12:27:12.911Z,69.10
2017-08-31T12:29:40.442Z,69.00
2017-08-31T12:32:07.976Z,67.60
2017-08-31T12:34:35.544Z,66.90
2017-08-31T12:37:03.077Z,67.30
2017-08-31T12:39:30.707Z,66.80
2017-08-31T12:41:58.234Z,67.00
2017-08-31T12:44:25.812Z,66.30
2017-08-31T12:46:53.376Z,66.00
2017-08-31T12:49:20.902Z,65.80
2017-08-31T12:51:48.507Z,65.20
2017-08-31T12:54:16.045Z,65.90
2017-08-31T12:56:43.613Z,66.40
2017-08-31T12:59:11.137Z,66.20
2017-08-31T13:01:38.689Z,65.90
2017-08-31T13:04:06.230Z,66.00
2017-08-31T13:06:33.753Z,65.10
2017-08-31T13:09:01.313Z,65.40
2017-08-31T13:11:28.873Z,66.40
2017-08-31T13:13:56.418Z,66.50
2017-08-31T13:16:23.983Z,66.90
2017-08-31T13:18:51.501Z,68.00
2017-08-31T13:21:19.102Z,68.60
2017-08-31T13:23:47.312Z,68.70
2017-08-31T13:26:14.841Z,70.10
2017-08-31T13:28:42.391Z,71.20
2017-08-31T13:31:09.983Z,71.00
2017-08-31T13:33:37.518Z,71.40
2017-08-31T13:36:05.047Z,71.00
2017-08-31T13:38:32.599Z,71.60
2017-08-31T13:41:00.160Z,72.20
2017-08-31T13:43:27.737Z,73.00
2017-08-31T13:45:55.293Z,72.50
2017-08-31T13:48:22.852Z,73.80
2017-08-31T13:50:50.383Z,73.30
2017-08-31T13:53:17.935Z,72.70
2017-08-31T13:55:45.489Z,73.60
2017-08-31T13:58:13.048Z,74.00
2017-08-31T14:00:40.645Z,75.10
2017-08-31T14:03:08.193Z,74.90
2017-08-31T14:05:35.726Z,75.10
2017-08-31T14:08:03.377Z,74.50
2017-08-31T14:10:30.938Z,74.80
2017-08-31T14:12:58.474Z,75.50
2017-08-31T14:15:26.030Z,75.20
2017-08-31T14:17:53.584Z,75.20
2017-08-31T14:20:21.102Z,75.90
2017-08-31T14:22:48.657Z,75.40
2017-08-31T14:25:16.244Z,76.10
2017-08-31T14:27:43.879Z,76.80
2017-08-31T14:30:11.425Z,76.00
2017-08-31T14:32:38.996Z,75.60
2017-08-31T14:35:06.522Z,75.40
2017-08-31T14:37:34.128Z,75.60
2017-08-31T14:40:01.713Z,76.00
2017-08-31T14:42:29.254Z,75.90
2017-08-31T14:44:56.868Z,75.30
2017-08-31T14:47:24.480Z,75.20
2017-08-31T14:49:52.024Z,75.70
2017-08-31T14:52:19.625Z,75.50
2017-08-31T14:54:47.177Z,74.90
2017-08-31T14:57:14.802Z,75.20
2017-08-31T14:59:42.345Z,73.50
2017-08-31T15:02:09.925Z,74.20
2017-08-31T15:04:37.462Z,75.00
2017-08-31T15:07:05.036Z,74.30
2017-08-31T15:09:32.596Z,74.40
2017-08-31T15:12:00.131Z,74.50
2017-08-31T15:14:27.730Z,74.80
2017-08-31T15:16:55.489Z,74.30
2017-08-31T15:19:23.062Z,73.80
2017-08-31T15:24:24.722Z,75.00
2017-08-31T15:26:52.548Z,75.20
2017-08-31T15:29:20.223Z,76.00
2017-08-31T15:31:47.818Z,74.90
2017-08-31T15:34:15.362Z,76.40
2017-08-31T15:36:42.926Z,75.10
2017-08-31T15:39:10.583Z,74.70
2017-08-31T15:41:38.147Z,74.70
2017-08-31T15:44:05.792Z,76.50
2017-08-31T15:46:33.352Z,75.60
2017-08-31T15:49:00.921Z,76.10
2017-08-31T15:51:28.529Z,78.30
2017-08-31T15:53:56.124Z,79.80
2017-08-31T15:56:23.670Z,80.70
2017-08-31T15:58:51.235Z,80.60
2017-08-31T16:01:18.783Z,81.00
2017-08-31T16:03:46.375Z,81.30
2017-08-31T16:06:14.696Z,78.90
2017-08-31T16:08:42.411Z,78.90
2017-08-31T16:11:10.007Z,77.90
2017-08-31T16:13:37.556Z,78.40
2017-08-31T16:16:05.306Z,78.60
2017-08-31T16:18:32.862Z,80.40
2017-08-31T16:21:00.415Z,80.70
2017-08-31T16:23:28.059Z,81.00
2017-08-31T16:25:55.675Z,77.90
2017-08-31T16:28:23.303Z,79.50
2017-08-31T16:30:50.936Z,80.50
2017-08-31T16:33:18.494Z,79.30
2017-08-31T16:35:46.103Z,80.10
2017-08-31T16:38:13.684Z,80.20
2017-08-31T16:40:41.388Z,80.30
2017-08-31T16:43:09.318Z,80.30
2017-08-31T16:45:36.968Z,79.00
2017-08-31T16:48:04.542Z,79.40
2017-08-31T16:50:32.223Z,78.10
2017-08-31T16:52:59.889Z,80.20
2017-08-31T16:55:27.519Z,81.50
2017-08-31T16:57:55.384Z,80.40
2017-08-31T17:00:23.042Z,80.80
2017-08-31T17:02:50.722Z,81.20
2017-08-31T17:05:18.477Z,79.20
2017-08-31T17:07:46.235Z,78.50
2017-08-31T17:10:14.103Z,78.70
2017-08-31T17:12:41.765Z,77.40
2017-08-31T17:15:09.397Z,77.20
2017-08-31T17:17:37.186Z,76.70
2017-08-31T17:20:04.855Z,76.10
2017-08-31T17:22:32.522Z,76.50
2017-08-31T17:25:00.296Z,76.40
2017-08-31T17:27:27.892Z,76.50
2017-08-31T17:29:55.605Z,76.40
2017-08-31T17:32:23.460Z,76.50
2017-08-31T17:34:51.322Z,76.40
2017-08-31T17:37:18.989Z,77.10
2017-08-31T17:39:46.744Z,76.20
2017-08-31T17:42:14.441Z,76.80
2017-08-31T17:44:42.188Z,75.60
2017-08-31T17:47:09.939Z,75.40
2017-08-31T17:49:37.695Z,75.10
2017-08-31T17:52:05.460Z,74.80
2017-08-31T17:54:33.106Z,74.80
2017-08-31T17:57:00.732Z,75.00
2017-08-31T17:59:28.390Z,74.60
2017-08-31T18:01:56.208Z,74.90
2017-08-31T18:04:23.840Z,75.00
2017-08-31T18:06:51.497Z,74.90
2017-08-31T18:09:19.141Z,75.40
2017-08-31T18:11:46.801Z,75.30
2017-08-31T18:14:14.613Z,76.20
2017-08-31T18:16:42.245Z,77.50
2017-08-31T18:19:10.044Z,76.30
2017-08-31T18:21:37.695Z,76.00
2017-08-31T18:24:05.461Z,77.30
2017-08-31T18:26:33.221Z,76.20
2017-08-31T18:29:00.985Z,75.70
2017-08-31T18:31:28.749Z,75.70
2017-08-31T18:33:56.520Z,76.10
2017-08-31T18:36:24.275Z,75.40
2017-08-31T18:38:52.041Z,77.20
2017-08-31T18:41:19.803Z,77.40
2017-08-31T18:43:47.495Z,76.80
2017-08-31T18:46:15.210Z,76.50
2017-08-31T18:48:42.862Z,76.00
2017-08-31T18:51:10.570Z,76.70
2017-08-31T18:53:38.311Z,77.40
2017-08-31T18:56:05.939Z,77.00
2017-08-31T18:58:33.602Z,75.20
2017-08-31T19:01:01.395Z,75.60
2017-08-31T19:03:29.157Z,75.00
2017-08-31T19:05:56.817Z,74.90
2017-08-31T19:08:24.686Z,74.90
2017-08-31T19:10:52.369Z,74.20
2017-08-31T19:13:20.213Z,74.90
2017-08-31T19:15:48.001Z,73.70
2017-08-31T19:18:15.741Z,74.00
2017-08-31T19:20:43.371Z,75.20
2017-08-31T19:23:11.061Z,76.20
2017-08-31T19:25:38.823Z,75.20
2017-08-31T19:28:06.489Z,75.40
2017-08-31T19:30:34.132Z,75.80
2017-08-31T19:33:01.843Z,76.80
2017-08-31T19:35:29.587Z,78.00
2017-08-31T19:37:57.437Z,78.80
2017-08-31T19:40:25.104Z,79.00
2017-08-31T19:42:53.781Z,78.50
2017-08-31T19:45:21.544Z,79.10
2017-08-31T19:47:49.410Z,78.00
2017-08-31T19:50:17.052Z,78.00
2017-08-31T19:52:44.834Z,78.80
2017-08-31T19:55:12.699Z,77.90
2017-08-31T19:57:40.461Z,77.00
2017-08-31T20:00:08.328Z,76.90
2017-08-31T20:02:35.998Z,77.20
2017-08-31T20:05:03.668Z,77.40
2017-08-31T20:07:31.515Z,76.90
2017-08-31T20:09:59.196Z,76.00
2017-08-31T20:12:27.041Z,76.10
2017-08-31T20:14:54.709Z,74.20
2017-08-31T20:17:22.484Z,74.50
2017-08-31T20:19:50.114Z,75.30
2017-08-31T20:22:17.768Z,74.90
2017-08-31T20:24:45.551Z,76.10
2017-08-31T20:27:13.210Z,76.60
2017-08-31T20:29:40.859Z,75.90
2017-08-31T20:32:08.739Z,77.80
2017-08-31T20:34:36.411Z,78.10
2017-08-31T20:37:04.095Z,77.20
2017-08-31T20:39:31.767Z,77.10
2017-08-31T20:41:59.587Z,76.30
2017-08-31T20:44:27.283Z,76.70
2017-08-31T20:46:55.120Z,77.20
2017-08-31T20:49:22.889Z,77.00
2017-08-31T20:51:50.543Z,76.10
2017-08-31T20:54:18.153Z,76.40
2017-08-31T20:56:45.767Z,78.60
2017-08-31T20:59:13.415Z,77.90
2017-08-31T21:01:41.079Z,78.30
2017-08-31T21:04:08.750Z,76.80
2017-08-31T21:06:36.430Z,76.40
2017-08-31T21:09:04.091Z,75.90
2017-08-31T21:11:31.861Z,75.90
2017-08-31T21:13:59.494Z,76.90
2017-08-31T21:16:27.133Z,77.60
2017-08-31T21:18:54.793Z,77.10
2017-08-31T21:21:22.578Z,78.10
2017-08-31T21:23:50.215Z,78.50
2017-08-31T21:26:17.849Z,79.10
2017-08-31T21:28:45.511Z,78.50
2017-08-31T21:31:13.262Z,79.00
2017-08-31T21:33:40.920Z,79.40
2017-08-31T21:36:08.770Z,79.70
2017-08-31T21:38:36.454Z,79.30
2017-08-31T21:41:04.072Z,79.80
2017-08-31T21:43:31.824Z,80.30
2017-08-31T21:45:59.483Z,80.80
2017-08-31T21:48:27.247Z,79.70
2017-08-31T21:50:54.924Z,80.00
2017-08-31T21:53:22.555Z,78.50
2017-08-31T21:55:50.194Z,78.90
2017-08-31T21:58:18.014Z,79.30
2017-08-31T22:00:45.642Z,78.90
2017-08-31T22:03:13.302Z,79.00
2017-08-31T22:05:40.938Z,79.90
2017-08-31T22:08:08.635Z,79.10
2017-08-31T22:10:36.303Z,79.40
2017-08-31T22:13:03.918Z,79.60
2017-08-31T22:15:31.636Z,79.00
2017-08-31T22:17:59.242Z,79.00
2017-08-31T22:20:26.876Z,78.50
2017-08-31T22:22:54.622Z,77.90
2017-08-31T22:25:22.298Z,78.00
2017-08-31T22:27:49.931Z,77.60
2017-08-31T22:30:17.586Z,78.10
2017-08-31T22:32:45.360Z,77.50
2017-08-31T22:35:12.975Z,78.20
2017-08-31T22:37:40.622Z,78.30
2017-08-31T22:40:09.151Z,78.50
2017-08-31T22:42:36.829Z,78.40
2017-08-31T22:45:04.467Z,78.80
2017-08-31T22:47:32.162Z,78.90
2017-08-31T22:49:59.896Z,79.60
2017-08-31T22:52:27.566Z,80.70
2017-08-31T22:54:55.223Z,80.40
2017-08-31T22:57:34.872Z,79.80
2017-08-31T23:00:02.725Z,80.40
2017-08-31T23:02:30.374Z,80.40
2017-08-31T23:04:57.992Z,80.10
2017-08-31T23:07:25.708Z,79.30
2017-08-31T23:09:53.320Z,80.10
2017-08-31T23:12:20.971Z,80.40
2017-08-31T23:14:48.577Z,81.30
2017-08-31T23:17:16.267Z,81.10
2017-08-31T23:19:44.113Z,80.40
2017-08-31T23:22:11.742Z,80.70
2017-08-31T23:24:39.401Z,81.00
2017-08-31T23:27:07.042Z,81.80
2017-08-31T23:29:34.858Z,81.80
2017-08-31T23:32:02.485Z,81.90
2017-08-31T23:34:30.179Z,82.20
2017-08-31T23:36:57.856Z,82.60
2017-08-31T23:39:25.500Z,83.10
2017-08-31T23:41:53.144Z,82.80
2017-08-31T23:44:20.828Z,82.40
2017-08-31T23:46:48.510Z,82.20
2017-08-31T23:49:16.248Z,81.80
2017-08-31T23:51:44.031Z,82.10
2017-08-31T23:54:11.671Z,82.20
2017-08-31T23:56:39.345Z,82.10
2017-08-31T23:59:07.012Z,82.20
